Nampa, ID (83651)

12:43 AM MDT on September 01, 2016 (GMT -0600)
Willow Creek | | Change Station

Elev 2490 ft 43.58 °N, 116.60 °W | Updated 33 minutes ago

Clear
Clear
68.6 °F
Feels Like 68.6 °F
N
0.0
Wind Variable Wind from North
Gusts 0.0 mph

Today
High -- | Low -- °F
--% Chance of Precip.
Yesterday
High -- | Low -- °F
Precip. -- in
Pressure 29.77 in
Visibility 10.0 miles
Clouds Clear
Dew Point 46 °F
Humidity 44%
Rainfall 0.00 in
Snow Depth Not available.
7:10 AM 8:20 PM
Waning Crescent, 0% visible
METAR KEUL 010556Z AUTO 00000KT 10SM CLR 20/09 A2982 RMK AO2 SLP080 T02000094 10339 20183 53007
Pressure 29.77 in
Visibility 10.0 miles
Clouds Clear
Dew Point 46 °F
Humidity 44%
Rainfall 0.00 in
Snow Depth Not available.
7:10 AM 8:20 PM
Waning Crescent, 0% visible
METAR KEUL 010556Z AUTO 00000KT 10SM CLR 20/09 A2982 RMK AO2 SLP080 T02000094 10339 20183 53007

10-Day Weather Forecast

Almanac

Astronomy

Sep. 01, 2016 Rise Set
Actual Time
Civil Twilight
Nautical Twilight
Astronomical Twilight
Moon
Length of Visible Light
Length of Day
Tomorrow will be .
, % of the Moon is Illuminated

Today's Extremes

State Highs State Lows

Community

WunderPhotos

Upload Photos

1,936,315 photos uploaded!

WunderBlog® & News

Nearby

Air Quality

  Air Quality AQ Index Pollutant
Not available.

Snow Depth

Station Depth Elevation

Earthquake Activity

City Distance Mag. Time & Date
Minimum magnitude displayed is 2.5.

Coastal Water Temperatures

Place Temperature

Stations

Nearby Weather Stations

Station Location Temp. Windchill Dew Point Humidity Wind Precip. Elev Updated Type
                   

Watches & Warnings

There are currently no watches in effect.